Time;durP1;ratioP1;P1;durP2;ratioP2;P2;SDS_P1;SDS_P2;PMS_P1;PMS_P2;Temp;Humidity;BMP_temperature;BMP_pressure;BME280_temperature;BME280_humidity;BME280_pressure;Samples;Min_cycle;Max_cycle;Signal;HPM_P1;HPM_P2
2022/03/14 00:00:57;;;;;;;274.53;263.57;;;11.40;99.90;;;;;;4376803;32;20210;-63
2022/03/14 00:03:25;;;;;;;283.57;272.13;;;11.40;99.90;;;;;;4390102;32;20187;-61
2022/03/14 00:05:53;;;;;;;282.23;270.87;;;11.40;99.90;;;;;;4392396;32;20211;-61
2022/03/14 00:08:24;;;;;;;274.07;262.80;;;11.40;99.90;;;;;;4392388;32;20209;-62
2022/03/14 00:10:52;;;;;;;277.97;266.83;;;11.30;99.90;;;;;;4392087;32;20507;-61
2022/03/14 00:13:19;;;;;;;267.93;257.00;;;11.30;99.90;;;;;;4393187;32;20226;-63
2022/03/14 00:15:46;;;;;;;274.07;263.23;;;11.30;99.90;;;;;;4392252;32;20190;-63
2022/03/14 00:18:13;;;;;;;282.60;271.13;;;11.30;99.90;;;;;;4392281;32;20144;-62
2022/03/14 00:20:42;;;;;;;271.70;260.77;;;11.30;99.90;;;;;;4381889;32;20254;-61
2022/03/14 00:23:09;;;;;;;270.17;259.27;;;11.30;99.90;;;;;;4381826;32;20159;-62
2022/03/14 00:25:37;;;;;;;271.10;260.17;;;11.30;99.90;;;;;;4367232;32;20198;-62
2022/03/14 00:28:04;;;;;;;286.17;274.77;;;11.40;99.90;;;;;;4369333;32;20156;-62
2022/03/14 00:30:31;;;;;;;294.83;282.93;;;11.30;99.90;;;;;;4377986;32;20145;-61
2022/03/14 00:32:59;;;;;;;287.90;276.40;;;11.30;99.90;;;;;;4376930;32;20132;-61
2022/03/14 00:35:26;;;;;;;303.43;291.23;;;11.30;99.90;;;;;;4376822;32;20152;-61
2022/03/14 00:37:55;;;;;;;295.67;283.63;;;11.20;99.90;;;;;;4385250;32;20598;-62
2022/03/14 00:40:24;;;;;;;305.57;293.27;;;11.30;99.90;;;;;;4377800;32;20569;-63
2022/03/14 00:42:53;;;;;;;319.50;306.53;;;11.20;99.90;;;;;;4387728;32;20194;-62
2022/03/14 00:45:21;;;;;;;301.70;289.57;;;11.30;99.90;;;;;;4393592;32;20594;-62
2022/03/14 00:47:50;;;;;;;297.47;285.43;;;11.20;99.90;;;;;;4391816;32;20168;-62
2022/03/14 00:50:16;;;;;;;302.13;289.87;;;11.20;99.90;;;;;;4391815;32;20164;-62
2022/03/14 00:52:43;;;;;;;316.57;303.90;;;11.30;99.90;;;;;;4391922;32;20144;-62
2022/03/14 00:55:12;;;;;;;303.13;290.87;;;11.20;99.90;;;;;;4391510;32;20226;-61
2022/03/14 00:57:38;;;;;;;298.80;286.90;;;11.20;99.90;;;;;;4391738;32;20143;-61
2022/03/14 01:00:06;;;;;;;299.07;287.00;;;11.20;99.90;;;;;;4391428;32;20233;-61
2022/03/14 01:02:33;;;;;;;318.07;305.20;;;11.20;99.90;;;;;;4391540;32;20527;-61
2022/03/14 01:05:00;;;;;;;316.53;303.53;;;11.20;99.90;;;;;;4392456;32;20207;-62
2022/03/14 01:07:27;;;;;;;333.23;319.50;;;11.20;99.90;;;;;;4390993;32;20190;-62
2022/03/14 01:09:54;;;;;;;338.93;325.10;;;11.20;99.90;;;;;;4391177;32;20565;-62
2022/03/14 01:12:22;;;;;;;333.47;319.83;;;11.20;99.90;;;;;;4391767;32;20168;-61
2022/03/14 01:14:49;;;;;;;342.10;328.10;;;11.20;99.90;;;;;;4391951;32;20136;-62
2022/03/14 01:17:16;;;;;;;348.67;334.33;;;11.20;99.90;;;;;;4391361;32;20194;-61
2022/03/14 01:19:43;;;;;;;379.43;363.47;;;11.20;99.90;;;;;;4391291;32;20128;-62
2022/03/14 01:22:11;;;;;;;365.00;349.67;;;11.20;99.90;;;;;;4390963;32;20144;-62
2022/03/14 01:24:39;;;;;;;365.40;349.97;;;11.10;99.90;;;;;;4390536;32;20205;-61
2022/03/14 01:27:06;;;;;;;379.37;363.03;;;11.20;99.90;;;;;;4390980;32;20613;-62
2022/03/14 01:29:35;;;;;;;389.87;373.33;;;11.10;99.90;;;;;;4391846;32;20141;-62
2022/03/14 01:32:03;;;;;;;399.53;382.77;;;11.20;99.90;;;;;;4391184;32;20136;-62
2022/03/14 01:34:30;;;;;;;392.60;376.30;;;11.10;99.90;;;;;;4391137;32;20156;-61
2022/03/14 01:36:57;;;;;;;402.97;386.03;;;11.10;99.90;;;;;;4391598;32;20232;-62
2022/03/14 01:39:24;;;;;;;420.00;401.93;;;11.10;99.90;;;;;;4390999;32;20141;-62
2022/03/14 01:41:51;;;;;;;437.00;418.07;;;11.10;99.90;;;;;;4389981;32;20183;-61
2022/03/14 01:44:19;;;;;;;408.33;391.00;;;11.10;99.90;;;;;;4386060;32;20171;-62
2022/03/14 01:46:47;;;;;;;437.13;418.27;;;11.10;99.90;;;;;;4387484;32;20230;-61
2022/03/14 01:49:15;;;;;;;423.87;405.70;;;11.00;99.90;;;;;;4390855;32;20212;-62
2022/03/14 01:51:43;;;;;;;422.13;403.73;;;11.00;99.90;;;;;;4390903;32;20216;-61
2022/03/14 01:54:10;;;;;;;444.93;425.33;;;10.90;99.90;;;;;;4390852;32;20555;-62
2022/03/14 01:56:41;;;;;;;449.43;429.60;;;10.90;99.90;;;;;;4391786;32;20631;-61
2022/03/14 01:59:08;;;;;;;445.03;425.37;;;10.70;99.90;;;;;;4390292;32;20226;-62
2022/03/14 02:01:41;;;;;;;452.93;432.70;;;10.80;99.90;;;;;;4389664;32;20186;-61
2022/03/14 02:04:09;;;;;;;446.27;426.33;;;10.80;99.90;;;;;;4390271;32;20152;-61
2022/03/14 02:06:37;;;;;;;446.67;427.10;;;10.90;99.90;;;;;;4390839;32;20144;-62
2022/03/14 02:09:04;;;;;;;450.70;430.37;;;10.80;99.90;;;;;;4391040;32;20141;-62
2022/03/14 02:11:30;;;;;;;450.33;430.73;;;10.80;99.90;;;;;;4391405;32;20168;-62
2022/03/14 02:13:57;;;;;;;456.37;435.93;;;10.70;99.90;;;;;;4390654;32;20239;-61
2022/03/14 02:16:24;;;;;;;456.40;436.23;;;10.70;99.90;;;;;;4390626;32;20152;-62
2022/03/14 02:18:51;;;;;;;459.63;438.90;;;10.60;99.90;;;;;;4390108;32;20172;-62
2022/03/14 02:21:19;;;;;;;478.53;456.90;;;10.60;99.90;;;;;;4391197;32;20179;-62
2022/03/14 02:23:46;;;;;;;483.87;462.07;;;10.50;99.90;;;;;;4391074;32;20215;-62
2022/03/14 02:26:12;;;;;;;482.83;460.37;;;10.50;99.90;;;;;;4390344;32;20451;-62
2022/03/14 02:28:39;;;;;;;489.17;466.90;;;10.50;99.90;;;;;;4390555;32;20208;-61
2022/03/14 02:31:06;;;;;;;486.07;463.73;;;10.60;99.90;;;;;;4391024;32;20267;-62
2022/03/14 02:33:33;;;;;;;508.90;485.27;;;10.60;99.90;;;;;;4389769;32;20142;-62
2022/03/14 02:36:05;;;;;;;502.93;479.37;;;10.60;99.90;;;;;;4390404;32;20139;-62
2022/03/14 02:38:39;;;;;;;531.23;506.47;;;10.70;99.90;;;;;;4390544;32;20155;-62
2022/03/14 02:41:05;;;;;;;493.67;470.97;;;10.70;99.90;;;;;;4389772;32;20606;-62
2022/03/14 02:43:38;;;;;;;510.40;486.57;;;10.70;99.90;;;;;;4390341;32;20156;-62
2022/03/14 02:46:04;;;;;;;504.37;481.23;;;10.70;99.90;;;;;;4390399;32;20143;-62
2022/03/14 02:48:32;;;;;;;497.20;473.77;;;10.80;99.90;;;;;;4390264;32;20215;-61
2022/03/14 02:51:01;;;;;;;499.40;476.10;;;10.80;99.90;;;;;;4374697;32;20516;-61
2022/03/14 02:53:28;;;;;;;500.50;477.33;;;10.70;99.90;;;;;;4389993;32;20223;-61
2022/03/14 02:55:56;;;;;;;494.70;472.03;;;10.70;99.90;;;;;;4390494;32;20144;-62
2022/03/14 02:58:25;;;;;;;521.07;496.87;;;10.70;99.90;;;;;;4390695;32;20137;-61
2022/03/14 03:00:55;;;;;;;530.13;505.10;;;10.70;99.90;;;;;;4390026;32;20173;-61
2022/03/14 03:03:22;;;;;;;510.47;486.87;;;10.80;99.90;;;;;;4389911;32;20148;-63
2022/03/14 03:05:49;;;;;;;517.03;492.80;;;10.70;99.90;;;;;;4390142;32;20160;-63
2022/03/14 03:08:16;;;;;;;510.63;486.47;;;10.70;99.90;;;;;;4390324;32;20612;-61
2022/03/14 03:10:48;;;;;;;538.13;512.73;;;10.70;99.90;;;;;;4390131;32;20152;-62
2022/03/14 03:13:19;;;;;;;510.00;486.37;;;10.70;99.90;;;;;;4389214;32;20140;-61
2022/03/14 03:15:46;;;;;;;521.87;496.90;;;10.70;99.90;;;;;;4390405;32;20154;-61
2022/03/14 03:18:13;;;;;;;507.70;484.47;;;10.70;99.90;;;;;;4390638;32;20639;-61
2022/03/14 03:20:42;;;;;;;502.77;479.40;;;10.60;99.90;;;;;;4390898;32;20136;-61
2022/03/14 03:23:09;;;;;;;521.67;497.00;;;10.60;99.90;;;;;;4390528;32;20166;-61
2022/03/14 03:25:35;;;;;;;520.20;495.63;;;10.60;99.90;;;;;;4390510;32;20485;-61
2022/03/14 03:28:02;;;;;;;513.60;489.47;;;10.60;99.90;;;;;;4389971;32;20175;-61
2022/03/14 03:30:30;;;;;;;494.83;472.23;;;10.60;99.90;;;;;;4390288;32;20216;-61
2022/03/14 03:32:57;;;;;;;496.67;473.80;;;10.60;99.90;;;;;;4392395;32;20205;-61
2022/03/14 03:35:24;;;;;;;513.63;489.67;;;10.60;99.90;;;;;;4394225;32;20164;-61
2022/03/14 03:37:51;;;;;;;514.63;490.90;;;10.60;99.90;;;;;;4392967;32;20560;-61
2022/03/14 03:40:17;;;;;;;545.57;519.57;;;10.70;99.90;;;;;;4392783;32;20211;-61
2022/03/14 03:42:44;;;;;;;513.43;489.20;;;10.50;99.90;;;;;;4390516;32;20247;-61
2022/03/14 03:45:13;;;;;;;526.47;501.37;;;10.50;99.90;;;;;;4392110;32;20201;-60
2022/03/14 03:47:41;;;;;;;512.97;488.53;;;10.50;99.90;;;;;;4392508;32;20148;-61
2022/03/14 03:50:09;;;;;;;522.53;497.87;;;10.50;99.90;;;;;;4391983;32;20255;-61
2022/03/14 03:52:36;;;;;;;520.60;495.90;;;10.50;99.90;;;;;;4392588;32;20208;-61
2022/03/14 03:55:03;;;;;;;539.40;513.53;;;10.40;99.90;;;;;;4392401;32;20135;-60
2022/03/14 03:57:31;;;;;;;546.77;519.90;;;10.40;99.90;;;;;;4392451;32;20179;-61
2022/03/14 04:00:02;;;;;;;554.03;526.63;;;10.40;99.90;;;;;;4383672;32;20218;-61
2022/03/14 04:02:29;;;;;;;538.83;512.80;;;10.40;99.90;;;;;;4391804;32;20195;-61
2022/03/14 04:04:58;;;;;;;569.43;540.97;;;10.50;99.90;;;;;;4378050;32;20515;-61
2022/03/14 04:07:32;;;;;;;554.60;527.00;;;10.50;99.90;;;;;;4379745;32;20166;-63
2022/03/14 04:09:59;;;;;;;563.10;535.13;;;10.40;99.90;;;;;;4392416;32;20564;-61
2022/03/14 04:12:29;;;;;;;559.57;531.87;;;10.40;99.90;;;;;;4392292;32;20203;-61
2022/03/14 04:15:06;;;;;;;548.73;521.77;;;10.40;99.90;;;;;;4391911;32;20177;-61
2022/03/14 04:17:35;;;;;;;541.60;514.93;;;10.40;99.90;;;;;;4392170;32;20162;-61
2022/03/14 04:20:04;;;;;;;556.83;529.53;;;10.40;99.90;;;;;;4393240;32;20231;-61
2022/03/14 04:22:37;;;;;;;560.60;532.80;;;10.40;99.90;;;;;;4392535;32;20463;-61
2022/03/14 04:25:15;;;;;;;558.07;530.33;;;10.30;99.90;;;;;;4392443;32;20555;-61
2022/03/14 04:27:46;;;;;;;580.00;551.07;;;10.30;99.90;;;;;;4392015;32;20140;-61
2022/03/14 04:30:21;;;;;;;539.73;513.70;;;10.20;99.90;;;;;;4393233;32;20136;-61
2022/03/14 04:32:49;;;;;;;535.33;509.50;;;10.30;99.90;;;;;;4391339;32;20177;-61
2022/03/14 04:35:20;;;;;;;532.47;506.50;;;10.30;99.90;;;;;;4393224;32;20148;-61
2022/03/14 04:37:48;;;;;;;511.47;486.97;;;10.20;99.90;;;;;;4392083;32;20136;-62
2022/03/14 04:40:15;;;;;;;520.00;495.07;;;10.30;99.90;;;;;;4392333;32;20446;-62
2022/03/14 04:42:42;;;;;;;482.13;459.57;;;10.10;99.90;;;;;;4392001;32;20178;-62
2022/03/14 04:45:12;;;;;;;441.33;421.47;;;10.00;99.90;;;;;;4390246;32;20185;-61
2022/03/14 04:47:41;;;;;;;468.33;446.90;;;10.00;99.90;;;;;;4391735;32;20144;-62
2022/03/14 04:50:09;;;;;;;489.37;466.83;;;9.90;99.90;;;;;;4392878;32;20151;-62
2022/03/14 04:52:38;;;;;;;481.47;459.03;;;9.80;99.90;;;;;;4391799;32;20170;-62
2022/03/14 04:55:05;;;;;;;484.80;462.00;;;9.80;99.90;;;;;;4390305;32;20238;-62
2022/03/14 04:57:35;;;;;;;490.40;468.03;;;9.80;99.90;;;;;;4393348;32;20141;-62
2022/03/14 05:00:02;;;;;;;478.80;456.73;;;9.80;99.90;;;;;;4391319;32;20210;-61
2022/03/14 05:02:36;;;;;;;459.53;438.10;;;9.70;99.90;;;;;;4391757;32;20439;-60
2022/03/14 05:05:12;;;;;;;470.00;447.80;;;9.60;99.90;;;;;;4392434;32;20147;-60
2022/03/14 05:07:54;;;;;;;483.50;460.67;;;9.60;99.90;;;;;;4391522;32;20167;-62
2022/03/14 05:10:25;;;;;;;458.37;436.93;;;9.60;99.90;;;;;;4380919;32;20176;-62
2022/03/14 05:12:55;;;;;;;475.67;453.33;;;9.50;99.90;;;;;;4387723;32;20522;-62
2022/03/14 05:15:22;;;;;;;456.13;435.03;;;9.40;99.90;;;;;;4391338;32;20186;-62
2022/03/14 05:17:50;;;;;;;465.53;443.40;;;9.40;99.90;;;;;;4392544;32;20517;-61
2022/03/14 05:20:19;;;;;;;462.53;440.97;;;9.40;99.90;;;;;;4391397;32;20144;-60
2022/03/14 05:22:50;;;;;;;447.97;427.27;;;9.30;99.90;;;;;;4391476;32;20174;-61
2022/03/14 05:25:20;;;;;;;448.53;427.57;;;9.30;99.90;;;;;;4391283;32;20149;-61
2022/03/14 05:27:48;;;;;;;443.13;422.70;;;9.40;99.90;;;;;;4386994;32;20152;-60
2022/03/14 05:30:19;;;;;;;439.13;418.77;;;9.40;99.90;;;;;;4384074;32;20143;-60
2022/03/14 05:32:53;;;;;;;434.57;414.63;;;9.50;99.90;;;;;;4382879;32;20223;-61
2022/03/14 05:35:20;;;;;;;429.43;409.60;;;9.60;99.90;;;;;;4388973;32;20202;-60
2022/03/14 05:37:50;;;;;;;418.90;399.70;;;9.60;99.90;;;;;;4379013;32;20230;-60
2022/03/14 05:40:20;;;;;;;407.33;388.50;;;9.60;99.90;;;;;;4384125;32;20153;-61
2022/03/14 05:42:50;;;;;;;412.67;393.53;;;9.70;99.90;;;;;;4377757;32;20144;-61
2022/03/14 05:45:20;;;;;;;409.90;391.43;;;9.60;99.90;;;;;;4379929;32;20147;-60
2022/03/14 05:47:47;;;;;;;420.93;401.40;;;9.70;99.90;;;;;;4392739;32;20164;-60
2022/03/14 05:50:15;;;;;;;402.50;384.10;;;9.60;99.90;;;;;;4391107;32;20164;-61
2022/03/14 05:52:42;;;;;;;399.53;381.37;;;9.60;99.90;;;;;;4390870;32;20161;-61
2022/03/14 05:55:17;;;;;;;408.27;389.50;;;9.60;99.90;;;;;;4391887;32;20222;-62
2022/03/14 05:57:46;;;;;;;391.97;373.30;;;9.60;99.90;;;;;;4392113;32;20143;-60
2022/03/14 06:00:20;;;;;;;418.40;398.80;;;9.50;99.90;;;;;;4390667;32;20231;-61
2022/03/14 06:02:48;;;;;;;400.00;381.47;;;9.50;99.90;;;;;;4391566;32;20135;-60
2022/03/14 06:05:16;;;;;;;414.53;394.97;;;9.50;99.90;;;;;;4390364;32;20613;-60
2022/03/14 06:07:42;;;;;;;414.20;395.00;;;9.50;99.90;;;;;;4390530;32;20208;-63
2022/03/14 06:10:15;;;;;;;430.80;410.97;;;9.50;99.90;;;;;;4389817;32;20556;-61
2022/03/14 06:12:42;;;;;;;423.30;403.60;;;9.40;99.90;;;;;;4390164;32;21882;-61
2022/03/14 06:15:12;;;;;;;417.77;399.03;;;9.40;99.90;;;;;;4390345;32;20219;-61
2022/03/14 06:17:40;;;;;;;385.03;367.20;;;9.40;99.90;;;;;;4390108;32;20172;-61
2022/03/14 06:20:10;;;;;;;401.03;382.67;;;9.40;99.90;;;;;;4389383;32;20161;-62
2022/03/14 06:22:39;;;;;;;417.67;398.27;;;9.40;99.90;;;;;;4390095;32;20433;-60
2022/03/14 06:25:06;;;;;;;409.00;390.03;;;9.40;99.90;;;;;;4388637;32;20213;-60
2022/03/14 06:27:35;;;;;;;404.47;386.13;;;9.40;99.90;;;;;;4389289;32;20151;-60
2022/03/14 06:30:02;;;;;;;411.50;392.23;;;9.50;99.90;;;;;;4388641;32;20146;-60
2022/03/14 06:32:34;;;;;;;415.60;396.67;;;9.50;99.90;;;;;;4389117;32;20580;-63
2022/03/14 06:35:01;;;;;;;408.23;390.07;;;9.60;99.90;;;;;;4389404;32;20190;-62
2022/03/14 06:37:28;;;;;;;393.57;375.70;;;9.60;99.90;;;;;;4389208;32;20170;-61
2022/03/14 06:39:55;;;;;;;388.43;371.00;;;9.60;99.90;;;;;;4389244;32;20148;-62
2022/03/14 06:42:23;;;;;;;380.03;363.00;;;9.60;99.90;;;;;;4388265;32;20174;-62
2022/03/14 06:44:51;;;;;;;401.40;383.07;;;9.60;99.90;;;;;;4389362;32;20478;-61
2022/03/14 06:47:34;;;;;;;396.47;378.27;;;9.70;99.90;;;;;;4389314;32;20206;-62
2022/03/14 06:50:10;;;;;;;379.67;362.80;;;9.60;99.90;;;;;;4389310;32;20673;-62
2022/03/14 06:52:42;;;;;;;389.17;371.50;;;9.70;99.90;;;;;;4387984;32;20147;-61
2022/03/14 06:55:15;;;;;;;380.17;362.87;;;9.70;99.90;;;;;;4388531;32;20144;-60
2022/03/14 06:57:49;;;;;;;372.20;355.43;;;9.70;99.90;;;;;;4388612;32;20985;-62
2022/03/14 07:00:19;;;;;;;389.03;371.13;;;9.70;99.90;;;;;;4385790;32;20207;-62
2022/03/14 07:02:47;;;;;;;387.40;369.53;;;9.70;99.90;;;;;;4387579;32;20174;-60
2022/03/14 07:05:24;;;;;;;387.73;369.90;;;9.70;99.90;;;;;;4389259;32;20568;-62
2022/03/14 07:07:51;;;;;;;393.37;375.30;;;9.70;99.90;;;;;;4389209;32;20256;-62
2022/03/14 07:10:18;;;;;;;385.33;367.63;;;9.70;99.90;;;;;;4391289;32;20220;-62
2022/03/14 07:12:48;;;;;;;413.60;394.67;;;9.80;99.90;;;;;;4389376;32;20239;-62
2022/03/14 07:15:21;;;;;;;366.90;349.93;;;9.80;99.90;;;;;;4392733;32;20482;-63
2022/03/14 07:17:48;;;;;;;370.83;353.60;;;9.80;99.90;;;;;;4387457;32;20136;-60
2022/03/14 07:20:17;;;;;;;373.03;356.03;;;9.90;99.90;;;;;;4391078;32;20158;-60
2022/03/14 07:22:52;;;;;;;362.30;345.53;;;9.90;99.90;;;;;;4393723;32;20547;-61
2022/03/14 07:25:23;;;;;;;372.53;355.20;;;9.90;99.90;;;;;;4391680;32;20161;-61
2022/03/14 07:27:50;;;;;;;375.60;358.90;;;10.00;99.90;;;;;;4387797;32;20604;-61
2022/03/14 07:30:23;;;;;;;349.23;333.53;;;10.10;99.90;;;;;;4388045;32;20193;-61
2022/03/14 07:32:50;;;;;;;325.23;310.90;;;10.20;99.90;;;;;;4390252;32;20165;-61
2022/03/14 07:35:17;;;;;;;323.67;309.13;;;10.30;99.90;;;;;;4393541;32;20563;-61
2022/03/14 07:37:45;;;;;;;309.07;295.07;;;10.30;99.90;;;;;;4391764;32;20156;-60
2022/03/14 07:40:14;;;;;;;312.83;299.20;;;10.40;99.90;;;;;;4392483;32;20231;-62
2022/03/14 07:42:42;;;;;;;322.97;308.83;;;10.50;99.90;;;;;;4391766;32;20191;-62
2022/03/14 07:45:10;;;;;;;326.10;311.50;;;10.60;99.90;;;;;;4392794;32;20548;-61
2022/03/14 07:47:39;;;;;;;336.10;321.07;;;10.60;99.90;;;;;;4391807;32;20158;-63
2022/03/14 07:50:10;;;;;;;330.30;315.50;;;10.60;99.90;;;;;;4391734;32;20143;-60
2022/03/14 07:52:38;;;;;;;303.17;289.63;;;10.70;99.90;;;;;;4391680;32;20141;-60
2022/03/14 07:55:10;;;;;;;311.00;296.97;;;10.70;99.90;;;;;;4392260;32;20223;-61
2022/03/14 07:57:39;;;;;;;311.70;297.50;;;10.70;99.90;;;;;;4391184;32;20176;-60
2022/03/14 08:00:11;;;;;;;336.00;320.73;;;10.80;99.90;;;;;;4245424;32;4823734;-63
2022/03/14 08:02:40;;;;;;;315.90;301.60;;;10.80;99.90;;;;;;4392332;32;20194;-60
2022/03/14 08:05:09;;;;;;;341.83;325.83;;;10.90;99.90;;;;;;4392708;32;20155;-60
2022/03/14 08:07:41;;;;;;;332.67;317.37;;;10.90;99.90;;;;;;4392395;32;20160;-61
2022/03/14 08:10:09;;;;;;;299.73;286.13;;;10.90;99.90;;;;;;4392397;32;20180;-61
2022/03/14 08:12:47;;;;;;;294.47;280.87;;;11.00;99.90;;;;;;4392306;32;20136;-61
2022/03/14 08:15:22;;;;;;;318.07;303.23;;;11.10;99.90;;;;;;4392906;32;20252;-61
2022/03/14 08:17:52;;;;;;;298.50;284.47;;;11.10;99.90;;;;;;4392789;32;20481;-61
2022/03/14 08:20:21;;;;;;;306.97;292.63;;;11.10;99.90;;;;;;4392909;32;20140;-60
2022/03/14 08:22:48;;;;;;;281.30;268.10;;;11.10;99.90;;;;;;4391871;32;20214;-61
2022/03/14 08:25:15;;;;;;;306.07;291.83;;;11.10;99.90;;;;;;4392935;32;20147;-61
2022/03/14 08:27:42;;;;;;;298.03;284.43;;;11.20;99.90;;;;;;4393650;32;20549;-61
2022/03/14 08:30:09;;;;;;;299.63;285.67;;;11.30;99.90;;;;;;4392591;32;20148;-60
2022/03/14 08:32:39;;;;;;;270.40;257.53;;;11.50;99.90;;;;;;4392090;32;20163;-63
2022/03/14 08:35:08;;;;;;;287.90;274.33;;;11.50;99.90;;;;;;4392176;32;20205;-61
2022/03/14 08:37:36;;;;;;;271.53;258.90;;;11.50;99.90;;;;;;4393659;32;20144;-61
2022/03/14 08:40:04;;;;;;;264.60;252.17;;;11.70;99.90;;;;;;4391995;32;20153;-62
2022/03/14 08:42:31;;;;;;;283.97;270.33;;;11.70;99.90;;;;;;4392802;32;20179;-62
2022/03/14 08:44:58;;;;;;;285.13;271.77;;;11.70;99.90;;;;;;4391979;32;20209;-62
2022/03/14 08:47:25;;;;;;;267.80;255.07;;;11.80;99.90;;;;;;4392188;32;20174;-60
2022/03/14 08:49:55;;;;;;;263.60;251.33;;;11.80;99.90;;;;;;4391808;32;20191;-62
2022/03/14 08:52:24;;;;;;;294.23;280.30;;;11.70;99.90;;;;;;4392596;32;20630;-61
2022/03/14 08:54:50;;;;;;;285.63;272.40;;;11.50;99.90;;;;;;4391870;32;20216;-62
2022/03/14 08:57:24;;;;;;;318.63;303.80;;;11.40;99.90;;;;;;4391796;32;20171;-61
2022/03/14 08:59:51;;;;;;;297.00;283.17;;;11.30;99.90;;;;;;4392904;32;20145;-61
2022/03/14 09:02:23;;;;;;;301.90;287.47;;;11.40;99.90;;;;;;4391808;32;20237;-62
2022/03/14 09:04:53;;;;;;;318.80;304.20;;;11.30;99.90;;;;;;4391859;32;20144;-61
2022/03/14 09:07:28;;;;;;;310.63;296.37;;;11.40;99.90;;;;;;4391417;32;20144;-61
2022/03/14 09:09:55;;;;;;;301.63;287.40;;;11.30;99.90;;;;;;4391464;32;20151;-61
2022/03/14 09:12:24;;;;;;;315.47;301.20;;;11.30;99.90;;;;;;4391430;32;20180;-62
2022/03/14 09:14:51;;;;;;;325.80;310.87;;;11.40;99.90;;;;;;4391267;32;20170;-61
2022/03/14 09:17:18;;;;;;;295.53;282.03;;;11.50;99.90;;;;;;4391408;32;20208;-61
2022/03/14 09:19:50;;;;;;;290.60;277.43;;;11.50;99.90;;;;;;4391338;32;20152;-61
2022/03/14 09:22:19;;;;;;;272.77;260.70;;;11.50;99.90;;;;;;4391276;32;20167;-61
2022/03/14 09:24:47;;;;;;;277.40;264.80;;;11.40;99.90;;;;;;4392061;32;20487;-62
2022/03/14 09:27:15;;;;;;;277.30;264.50;;;11.50;99.90;;;;;;4391370;32;20172;-61
2022/03/14 09:29:42;;;;;;;274.80;262.10;;;11.50;99.90;;;;;;4390615;32;20203;-61
2022/03/14 09:32:16;;;;;;;269.40;257.23;;;11.60;99.90;;;;;;4391198;32;20159;-61
2022/03/14 09:34:59;;;;;;;249.57;238.23;;;11.80;99.90;;;;;;4392826;32;20516;-61
2022/03/14 09:37:26;;;;;;;242.33;231.43;;;12.00;99.90;;;;;;4391065;32;20149;-61
2022/03/14 09:39:55;;;;;;;244.67;233.43;;;12.10;99.90;;;;;;4391127;32;20175;-61
2022/03/14 09:42:23;;;;;;;231.67;221.17;;;12.00;99.90;;;;;;4391030;32;20167;-60
2022/03/14 09:44:53;;;;;;;248.50;236.90;;;12.00;99.90;;;;;;4391065;32;20544;-61
2022/03/14 09:47:23;;;;;;;242.80;231.83;;;12.00;99.90;;;;;;4392104;32;20175;-63
2022/03/14 09:50:07;;;;;;;251.70;240.73;;;11.90;99.90;;;;;;4391080;32;20160;-61
2022/03/14 09:52:40;;;;;;;249.07;238.13;;;12.00;99.90;;;;;;4389919;32;20233;-61
2022/03/14 09:55:12;;;;;;;240.00;229.30;;;12.20;99.90;;;;;;4391253;32;20156;-62
2022/03/14 09:57:40;;;;;;;226.30;215.67;;;12.30;99.90;;;;;;4392472;32;20191;-61
2022/03/14 10:00:10;;;;;;;233.07;222.50;;;12.40;99.90;;;;;;4390955;32;20172;-62
2022/03/14 10:02:40;;;;;;;223.40;213.07;;;12.40;99.90;;;;;;4390795;32;20148;-62
2022/03/14 10:05:11;;;;;;;229.17;218.63;;;12.60;99.90;;;;;;4391513;32;20207;-61
2022/03/14 10:07:43;;;;;;;200.20;190.90;;;12.70;99.90;;;;;;4391171;32;20583;-62
2022/03/14 10:10:17;;;;;;;212.97;202.80;;;12.70;99.90;;;;;;4390637;32;20204;-62
2022/03/14 10:12:52;;;;;;;211.27;201.43;;;12.60;99.90;;;;;;4391260;32;20195;-60
2022/03/14 10:15:22;;;;;;;217.03;206.97;;;12.50;99.90;;;;;;4390490;32;20151;-60
2022/03/14 10:17:54;;;;;;;210.83;201.07;;;12.30;99.90;;;;;;4390758;32;20144;-62
2022/03/14 10:20:22;;;;;;;218.43;208.37;;;12.50;99.90;;;;;;4390504;32;20148;-62
2022/03/14 10:22:50;;;;;;;214.67;205.10;;;12.80;99.90;;;;;;4391911;32;20166;-62
2022/03/14 10:25:19;;;;;;;197.47;188.53;;;13.00;99.90;;;;;;4390483;32;20164;-62
2022/03/14 10:27:49;;;;;;;229.07;218.57;;;13.40;99.90;;;;;;4390555;32;20160;-62
2022/03/14 10:30:28;;;;;;;185.03;175.97;;;13.70;99.90;;;;;;4390635;32;20163;-62
2022/03/14 10:33:12;;;;;;;187.10;178.50;;;13.80;99.90;;;;;;4390505;32;20193;-62
2022/03/14 10:35:41;;;;;;;196.03;186.70;;;13.70;99.90;;;;;;4390334;32;20140;-62
2022/03/14 10:38:10;;;;;;;206.33;197.13;;;13.50;99.90;;;;;;4390782;32;20182;-61
2022/03/14 10:40:40;;;;;;;206.00;196.93;;;13.40;99.90;;;;;;4387929;32;20217;-62
2022/03/14 10:43:21;;;;;;;206.53;196.93;;;13.40;99.90;;;;;;4376109;32;20170;-62
2022/03/14 10:45:48;;;;;;;198.53;189.67;;;13.20;99.90;;;;;;4379665;32;20686;-62
2022/03/14 10:48:15;;;;;;;212.97;203.47;;;13.10;99.90;;;;;;4380292;32;20179;-62
2022/03/14 10:50:43;;;;;;;206.17;196.80;;;12.90;99.90;;;;;;4389899;32;20160;-61
2022/03/14 10:53:12;;;;;;;218.40;208.00;;;13.00;99.90;;;;;;4385234;32;20205;-62
2022/03/14 10:55:42;;;;;;;230.40;220.10;;;12.90;99.90;;;;;;4379161;32;20215;-60
2022/03/14 10:58:16;;;;;;;226.60;216.20;;;12.80;99.90;;;;;;4375767;32;20200;-60
2022/03/14 11:00:47;;;;;;;208.67;199.10;;;12.60;99.90;;;;;;4373210;32;20187;-61
2022/03/14 11:03:25;;;;;;;248.10;236.97;;;12.50;99.90;;;;;;4375233;32;20212;-62
2022/03/14 11:05:54;;;;;;;253.60;242.53;;;12.60;99.90;;;;;;4375122;32;20519;-61
2022/03/14 11:08:31;;;;;;;201.53;192.27;;;13.20;99.90;;;;;;4375402;32;20149;-60
2022/03/14 11:11:02;;;;;;;197.17;188.07;;;13.60;99.90;;;;;;4375081;32;20175;-62
2022/03/14 11:13:29;;;;;;;181.03;172.33;;;13.80;99.90;;;;;;4375155;32;20204;-61
2022/03/14 11:15:57;;;;;;;182.67;173.80;;;13.90;99.90;;;;;;4375103;32;20569;-61
2022/03/14 11:18:37;;;;;;;182.53;174.03;;;14.10;99.90;;;;;;4374802;32;20188;-61
2022/03/14 11:21:09;;;;;;;183.53;175.00;;;14.30;99.90;;;;;;4374955;32;20160;-61
2022/03/14 11:23:41;;;;;;;164.40;156.47;;;14.40;99.90;;;;;;4386592;32;20159;-62
2022/03/14 11:26:11;;;;;;;181.40;172.80;;;14.50;99.90;;;;;;4389182;32;20515;-61
2022/03/14 11:28:42;;;;;;;183.77;175.23;;;14.60;99.90;;;;;;4389480;32;20174;-62
2022/03/14 11:31:10;;;;;;;177.77;169.13;;;14.60;99.90;;;;;;4390019;32;20608;-60
2022/03/14 11:33:41;;;;;;;165.07;156.97;;;14.90;99.90;;;;;;4389195;32;20178;-61
2022/03/14 11:36:12;;;;;;;165.80;158.03;;;15.30;99.90;;;;;;4389076;32;20208;-61
2022/03/14 11:41:30;;;;;;;158.80;151.33;;;15.60;99.90;;;;;;4390000;32;20221;-61
2022/03/14 11:44:08;;;;;;;164.67;156.33;;;15.40;99.90;;;;;;4389947;32;20156;-61
2022/03/14 11:46:36;;;;;;;162.93;155.20;;;15.10;99.90;;;;;;4389295;32;20163;-61
2022/03/14 11:49:14;;;;;;;166.73;158.93;;;15.00;99.90;;;;;;4388998;32;20247;-62
2022/03/14 11:51:49;;;;;;;162.30;154.90;;;15.20;99.90;;;;;;4387237;32;20201;-62
2022/03/14 11:54:19;;;;;;;171.70;163.70;;;15.10;99.90;;;;;;4392236;32;20171;-59
2022/03/14 11:57:10;;;;;;;172.10;163.73;;;15.10;99.90;;;;;;4393264;32;20154;-61
2022/03/14 11:59:44;;;;;;;160.30;153.03;;;15.40;99.90;;;;;;4391612;32;20173;-60
2022/03/14 12:02:41;;;;;;;162.67;155.30;;;15.40;99.90;;;;;;4391722;32;20204;-60
2022/03/14 12:05:08;;;;;;;169.43;161.30;;;15.30;99.90;;;;;;4391693;32;20160;-61
2022/03/14 12:07:37;;;;;;;170.73;163.07;;;15.30;99.90;;;;;;4391786;32;20203;-60
2022/03/14 12:10:31;;;;;;;180.87;172.40;;;15.40;99.90;;;;;;4391623;32;20156;-61
2022/03/14 12:13:13;;;;;;;167.50;159.67;;;15.50;99.90;;;;;;4391326;32;20190;-62
2022/03/14 12:15:49;;;;;;;178.63;170.60;;;15.20;99.90;;;;;;4389604;32;20190;-61
2022/03/14 12:18:53;;;;;;;169.33;161.73;;;15.00;99.90;;;;;;4392190;32;20171;-62
2022/03/14 12:21:52;;;;;;;157.80;149.93;;;15.00;99.90;;;;;;4343092;33;20183;-62
2022/03/14 12:24:45;;;;;;;154.27;147.10;;;14.40;99.90;;;;;;4343767;33;20153;-62
2022/03/14 12:27:33;;;;;;;163.60;156.13;;;14.30;99.90;;;;;;4343688;33;20238;-62